createdAt,value
2022-10-31T00:03:24.478Z,22.08
2022-10-31T00:08:26.505Z,23.35
2022-10-31T00:13:28.492Z,21.83
2022-10-31T00:18:30.662Z,24.92
2022-10-31T00:23:32.611Z,29.30
2022-10-31T00:28:34.869Z,27.27
2022-10-31T00:33:38.959Z,29.65
2022-10-31T00:38:41.733Z,22.60
2022-10-31T00:43:44.677Z,25.90
2022-10-31T00:48:46.722Z,25.75
2022-10-31T00:53:48.642Z,23.08
2022-10-31T00:58:50.606Z,21.25
2022-10-31T01:03:52.551Z,37.80
2022-10-31T01:08:54.514Z,33.15
2022-10-31T01:13:56.576Z,32.42
2022-10-31T01:18:58.544Z,20.55
2022-10-31T01:24:00.943Z,34.88
2022-10-31T01:29:08.223Z,19.35
2022-10-31T01:34:15.553Z,20.60
2022-10-31T01:39:17.540Z,25.73
2022-10-31T01:44:19.365Z,28.77
2022-10-31T01:49:43.605Z,29.02
2022-10-31T01:55:09.287Z,31.02
2022-10-31T02:05:30.746Z,32.40
2022-10-31T02:10:34.532Z,27.50
2022-10-31T02:15:38.819Z,29.33
2022-10-31T02:20:49.599Z,22.80
2022-10-31T02:26:15.493Z,26.40
2022-10-31T02:31:26.184Z,30.80
2022-10-31T02:36:46.888Z,32.22
2022-10-31T02:41:54.779Z,28.55
2022-10-31T02:47:14.959Z,29.80
2022-10-31T02:52:26.597Z,24.15
2022-10-31T02:57:36.176Z,25.38
2022-10-31T03:03:02.621Z,29.58
2022-10-31T03:08:27.928Z,22.98
2022-10-31T03:13:47.007Z,24.52
2022-10-31T03:18:59.114Z,20.08
2022-10-31T03:24:03.353Z,28.23
2022-10-31T03:29:08.773Z,26.88
2022-10-31T03:34:13.674Z,22.88
2022-10-31T03:39:19.716Z,26.83
2022-10-31T03:44:23.870Z,27.52
2022-10-31T03:49:26.604Z,29.38
2022-10-31T03:54:34.969Z,28.83
2022-10-31T03:59:42.411Z,23.08
2022-10-31T04:04:46.820Z,27.05
2022-10-31T04:09:51.742Z,27.40
2022-10-31T04:14:54.461Z,23.27
2022-10-31T04:19:56.430Z,26.02
2022-10-31T04:24:58.410Z,30.42
2022-10-31T04:30:01.111Z,25.52
2022-10-31T04:35:03.127Z,21.58
2022-10-31T04:40:06.092Z,25.50
2022-10-31T04:45:08.269Z,18.85
2022-10-31T04:55:13.255Z,17.23
2022-10-31T05:00:17.393Z,18.02
2022-10-31T05:05:22.241Z,16.65
2022-10-31T05:10:27.133Z,19.23
2022-10-31T05:15:29.999Z,18.63
2022-10-31T05:20:32.612Z,19.25
2022-10-31T05:25:34.620Z,19.20
2022-10-31T05:30:36.790Z,20.02
2022-10-31T05:35:38.771Z,18.73
2022-10-31T05:40:40.854Z,20.50
2022-10-31T05:50:44.894Z,17.85
2022-10-31T05:55:48.749Z,21.17
2022-10-31T06:00:50.825Z,23.85
2022-10-31T06:05:55.178Z,30.27
2022-10-31T06:10:57.835Z,27.73
2022-10-31T06:16:00.009Z,39.17
2022-10-31T06:26:04.029Z,9.40
2022-10-31T06:36:09.707Z,23.95
2022-10-31T06:41:12.087Z,27.98
2022-10-31T06:46:14.078Z,20.23
2022-10-31T06:51:16.229Z,23.73
2022-10-31T07:01:20.598Z,19.15
2022-10-31T07:06:24.250Z,22.25
2022-10-31T07:11:27.972Z,15.40
2022-10-31T07:16:31.393Z,16.45
2022-10-31T07:21:33.491Z,18.55
2022-10-31T07:26:39.038Z,18.63
2022-10-31T07:31:44.284Z,16.25
2022-10-31T07:36:47.182Z,19.92
2022-10-31T07:41:49.263Z,13.18
2022-10-31T07:51:54.590Z,18.38
2022-10-31T07:56:59.502Z,20.08
2022-10-31T08:02:03.659Z,9.55
2022-10-31T08:07:05.782Z,21.75
2022-10-31T08:17:09.923Z,15.40
2022-10-31T08:27:14.603Z,16.20
2022-10-31T08:32:17.290Z,14.38
2022-10-31T08:37:21.521Z,10.15
2022-10-31T08:42:23.753Z,13.52
2022-10-31T08:47:25.875Z,15.00
2022-10-31T08:57:55.691Z,21.77
2022-10-31T09:03:02.852Z,23.17
2022-10-31T09:08:07.870Z,27.50
2022-10-31T09:13:15.315Z,15.35
2022-10-31T09:18:20.557Z,24.58
2022-10-31T09:23:26.830Z,14.07
2022-10-31T09:28:29.532Z,22.15
2022-10-31T09:33:31.774Z,23.88
2022-10-31T09:38:34.278Z,20.20
2022-10-31T09:43:40.263Z,21.25
2022-10-31T09:48:52.602Z,20.15
2022-10-31T09:54:20.783Z,24.40
2022-10-31T09:59:39.827Z,21.88
2022-10-31T10:04:51.711Z,23.35
2022-10-31T10:09:53.875Z,26.70
2022-10-31T10:15:20.495Z,25.23
2022-10-31T10:20:55.144Z,25.25
2022-10-31T10:26:11.529Z,24.38
2022-10-31T10:31:18.249Z,24.77
2022-10-31T10:36:28.451Z,24.88
2022-10-31T10:41:34.953Z,27.15
2022-10-31T10:47:09.672Z,25.95
2022-10-31T10:57:56.837Z,26.85
2022-10-31T11:08:01.133Z,24.88
2022-10-31T11:13:25.052Z,26.13
2022-10-31T11:18:30.506Z,24.20
2022-10-31T11:23:34.187Z,27.45
2022-10-31T11:28:39.510Z,25.98
2022-10-31T11:33:49.453Z,27.05
2022-10-31T11:42:08.770Z,29.98
2022-10-31T11:47:15.825Z,29.45
2022-10-31T11:52:23.449Z,30.17
2022-10-31T11:57:43.882Z,31.25
2022-10-31T12:05:24.912Z,30.15
2022-10-31T12:10:38.642Z,25.50
2022-10-31T12:15:51.698Z,27.92
2022-10-31T12:21:05.807Z,28.75
2022-10-31T12:26:28.522Z,27.50
2022-10-31T12:32:16.488Z,27.00
2022-10-31T12:37:50.108Z,26.80
2022-10-31T12:43:27.470Z,27.83
2022-10-31T12:48:35.356Z,28.02
2022-10-31T12:53:58.454Z,25.52
2022-10-31T12:59:32.893Z,28.02
2022-10-31T13:05:13.755Z,24.90
2022-10-31T13:10:31.983Z,26.23
2022-10-31T13:15:50.210Z,28.38
2022-10-31T13:20:56.003Z,26.02
2022-10-31T13:26:01.261Z,28.67
2022-10-31T13:31:04.102Z,45.22
2022-10-31T13:36:27.984Z,40.95
2022-10-31T13:41:47.458Z,30.52
2022-10-31T13:46:49.879Z,31.45
2022-10-31T13:51:53.902Z,31.90
2022-10-31T13:56:55.923Z,30.23
2022-10-31T14:02:01.648Z,28.13
2022-10-31T14:07:11.143Z,27.25
2022-10-31T14:12:36.942Z,35.42
2022-10-31T14:17:48.352Z,28.20
2022-10-31T14:22:50.534Z,28.23
2022-10-31T14:28:02.354Z,29.95
2022-10-31T14:33:20.992Z,29.25
2022-10-31T14:38:24.526Z,26.77
2022-10-31T14:43:54.347Z,29.27
2022-10-31T14:49:06.499Z,27.05
2022-10-31T14:54:17.544Z,26.60
2022-10-31T14:59:25.823Z,27.42
2022-10-31T15:04:31.623Z,27.95
2022-10-31T15:09:36.109Z,27.15
2022-10-31T15:14:38.297Z,26.08
2022-10-31T15:19:40.759Z,34.85
2022-10-31T15:24:45.139Z,26.40
2022-10-31T15:29:54.230Z,35.90
2022-10-31T15:34:59.290Z,26.88
2022-10-31T15:40:13.876Z,28.52
2022-10-31T15:45:16.095Z,25.65
2022-10-31T15:50:26.078Z,25.10
2022-10-31T15:55:34.879Z,24.83
2022-10-31T16:00:40.116Z,27.08
2022-10-31T16:05:50.886Z,24.63
2022-10-31T16:10:54.122Z,24.42
2022-10-31T16:16:33.613Z,22.92
2022-10-31T16:21:33.723Z,21.40
2022-10-31T16:26:36.491Z,23.33
2022-10-31T16:31:41.584Z,22.38
2022-10-31T16:36:44.632Z,21.25
2022-10-31T16:41:53.385Z,21.45
2022-10-31T16:47:07.695Z,21.27
2022-10-31T16:52:12.051Z,21.15
2022-10-31T16:57:22.741Z,23.02
2022-10-31T17:02:26.103Z,33.45
2022-10-31T17:07:29.790Z,22.35
2022-10-31T17:12:32.304Z,25.17
2022-10-31T17:17:34.280Z,25.45
2022-10-31T17:27:43.469Z,21.75
2022-10-31T17:32:50.977Z,20.75
2022-10-31T17:37:53.389Z,19.85
2022-10-31T17:42:58.268Z,18.75
2022-10-31T17:48:01.207Z,18.67
2022-10-31T17:53:03.949Z,21.85
2022-10-31T17:58:06.619Z,22.80
2022-10-31T18:03:09.172Z,18.40
2022-10-31T18:08:11.493Z,21.40
2022-10-31T18:13:13.701Z,21.20
2022-10-31T18:18:16.220Z,18.55
2022-10-31T18:23:18.299Z,18.38
2022-10-31T18:28:20.818Z,19.40
2022-10-31T18:33:24.160Z,19.08
2022-10-31T18:38:29.499Z,22.52
2022-10-31T18:43:32.948Z,18.45
2022-10-31T18:48:37.111Z,17.25
2022-10-31T18:53:39.364Z,20.20
2022-10-31T18:58:41.917Z,19.85
2022-10-31T19:03:45.263Z,17.63
2022-10-31T19:08:48.464Z,18.25
2022-10-31T19:13:53.676Z,15.98
2022-10-31T19:19:00.956Z,18.33
2022-10-31T19:24:10.773Z,15.10
2022-10-31T19:29:13.853Z,13.55
2022-10-31T19:34:21.070Z,13.73
2022-10-31T19:39:26.050Z,14.40
2022-10-31T19:44:32.959Z,14.05
2022-10-31T19:49:45.430Z,16.23
2022-10-31T19:54:54.487Z,14.68
2022-10-31T19:59:57.601Z,15.82
2022-10-31T20:05:09.919Z,14.30
2022-10-31T20:10:23.906Z,11.55
2022-10-31T20:15:27.417Z,17.55
2022-10-31T20:20:50.155Z,18.25
2022-10-31T20:26:00.354Z,14.98
2022-10-31T20:31:11.279Z,15.07
2022-10-31T20:36:16.069Z,14.82
2022-10-31T20:41:22.586Z,16.50
2022-10-31T20:46:29.259Z,16.27
2022-10-31T20:51:34.646Z,18.42
2022-10-31T20:56:38.090Z,21.75
2022-10-31T21:01:42.772Z,17.00
2022-10-31T21:06:49.662Z,18.95
2022-10-31T21:11:54.896Z,22.42
2022-10-31T21:16:57.542Z,22.75
2022-10-31T21:22:02.493Z,16.60
2022-10-31T21:27:10.068Z,17.90
2022-10-31T21:32:18.000Z,21.13
2022-10-31T21:37:20.489Z,22.52
2022-10-31T21:42:23.644Z,16.83
2022-10-31T21:47:27.224Z,20.52
2022-10-31T21:52:31.705Z,16.58
2022-10-31T21:57:35.087Z,16.75
2022-10-31T22:02:40.580Z,18.42
2022-10-31T22:07:44.216Z,15.75
2022-10-31T22:12:46.278Z,16.42
2022-10-31T22:17:49.028Z,22.98
2022-10-31T22:22:51.375Z,19.48
2022-10-31T22:27:53.405Z,24.65
2022-10-31T22:37:57.545Z,15.88
2022-10-31T22:42:59.890Z,19.05
2022-10-31T22:48:02.591Z,14.32
2022-10-31T22:53:04.736Z,14.68
2022-10-31T23:03:08.630Z,15.82
2022-10-31T23:08:10.608Z,18.67
2022-10-31T23:18:50.152Z,20.35
2022-10-31T23:23:52.430Z,16.55
2022-10-31T23:28:54.355Z,15.57
2022-10-31T23:33:56.251Z,15.05
2022-10-31T23:38:58.269Z,16.85
2022-10-31T23:49:02.263Z,15.45
2022-10-31T23:54:04.345Z,15.27
2022-10-31T23:59:06.575Z,15.10
